This is the latest recevied weather packets stored in our database for station/object K5NCO. If no packets are shown the sender has not sent any weather packets the latest 10 day(s).
| Time | Temp. | Humidity | Pressure | Rain* | Wind** | Luminosity | Snow |
|---|---|---|---|---|---|---|---|
| 1777488404 | 20.56° C | 95% | 1014 hPa | 0 mm | - | 58 W/m² | - |
| 1777488103 | 20.56° C | 95% | 1014 hPa | 0 mm | - | 64 W/m² | - |
| 1777487800 | 21.11° C | 95% | 1014 hPa | 0 mm | - | 55 W/m² | - |
| 1777487498 | 21.11° C | 94% | 1013.8 hPa | 0 mm | - | 59 W/m² | - |
| 1777487195 | 21.11° C | 94% | 1013.8 hPa | 0 mm | - | 62 W/m² | - |
| 1777486890 | 21.11° C | 94% | 1013.8 hPa | 0 mm | - | 54 W/m² | - |
| 1777486588 | 21.11° C | 94% | 1013.7 hPa | 0 mm | - | 80 W/m² | - |
| 1777486286 | 21.67° C | 94% | 1013.7 hPa | 0 mm | - | 60 W/m² | - |
| 1777485983 | 21.67° C | 93% | 1013.8 hPa | 0 mm | - | 65 W/m² | - |
| 1777485679 | 21.67° C | 93% | 1014 hPa | 0 mm | - | 59 W/m² | - |
| 1777485375 | 22.22° C | 93% | 1014.1 hPa | 0 mm | - | 55 W/m² | - |
| 1777485071 | 22.22° C | 92% | 1014.3 hPa | 0 mm | - | 70 W/m² | - |
| 1777484768 | 22.78° C | 92% | 1014.4 hPa | 0 mm | - | 78 W/m² | - |
| 1777484464 | 23.33° C | 91% | 1014.3 hPa | 0 mm | - | 69 W/m² | - |
| 1777484161 | 23.89° C | 89% | 1014 hPa | 0 mm | - | 105 W/m² | - |
| 1777483857 | 27.22° C | 85% | 1014.1 hPa | 0 mm | - | 72 W/m² | - |
| 1777483554 | 27.78° C | 87% | 1014 hPa | 0 mm | - | 483 W/m² | - |
| 1777483249 | 27.78° C | 86% | 1014 hPa | 0 mm | - | 618 W/m² | - |
| 1777482945 | 26.67° C | 90% | 1014.2 hPa | 0 mm | - | 807 W/m² | - |
| 1777482641 | 26.67° C | 90% | 1014.3 hPa | 0 mm | - | 349 W/m² | - |
| 1777482338 | 26.67° C | 89% | 1014.4 hPa | 0 mm | - | 248 W/m² | - |
| 1777482036 | 26.67° C | 89% | 1014.7 hPa | 0 mm | - | 234 W/m² | - |
| 1777481733 | 27.22° C | 89% | 1014.4 hPa | 0 mm | - | 209 W/m² | - |
| 1777481431 | 26.67° C | 90% | 1014.3 hPa | 0 mm | - | 296 W/m² | - |
| 1777481127 | 26.67° C | 90% | 1014.2 hPa | 0 mm | - | 514 W/m² | - |
* Rain latest hour (hover to see other rain measurements)
** Current wind speed in m/s (hover to see current wind gust speed)